Terminal Aerodrome Forecast
Issued by NWS

Home | Current Version | Previous Version | Text Only | Print | Product List | Glossary On
Versions: 1 2 3 4 5 6 7 8 9 10 11 12 13 14
323
FTUS42 KMLB 221856 AAB
TAFSUA
TAF AMD
KSUA 221856Z 2219/2318 11014KT P6SM FEW035 SCT250
     FM230000 16008KT P6SM VCSH SCT050 BKN250
     FM230200 17005KT P6SM BKN250
     FM231400 19012KT P6SM FEW250=

USA.gov is the U.S. government's official web portal to all federal, state and local government web resources and services.